sensor_id;sensor_type;location;lat;lon;timestamp;temperature;humidity
45315;SHT31;31051;51.540;5.852;2023-09-19T00:11:24;14.9;81.6
45315;SHT31;31051;51.540;5.852;2023-09-19T00:24:23;14.8;81.8
45315;SHT31;31051;51.540;5.852;2023-09-19T00:37:22;14.6;82.7
45315;SHT31;31051;51.540;5.852;2023-09-19T00:50:22;14.6;82.0
45315;SHT31;31051;51.540;5.852;2023-09-19T01:03:21;14.5;81.3
45315;SHT31;31051;51.540;5.852;2023-09-19T01:16:20;14.7;79.1
45315;SHT31;31051;51.540;5.852;2023-09-19T01:29:20;14.5;79.2
45315;SHT31;31051;51.540;5.852;2023-09-19T01:42:19;14.4;78.3
45315;SHT31;31051;51.540;5.852;2023-09-19T01:55:19;14.3;78.4
45315;SHT31;31051;51.540;5.852;2023-09-19T02:08:18;14.3;78.0
45315;SHT31;31051;51.540;5.852;2023-09-19T02:21:17;14.2;77.6
45315;SHT31;31051;51.540;5.852;2023-09-19T02:34:17;14.1;77.2
45315;SHT31;31051;51.540;5.852;2023-09-19T02:47:16;14.0;76.7
45315;SHT31;31051;51.540;5.852;2023-09-19T03:13:15;13.6;76.1
45315;SHT31;31051;51.540;5.852;2023-09-19T03:26:14;13.6;76.2
45315;SHT31;31051;51.540;5.852;2023-09-19T03:39:13;13.5;76.2
45315;SHT31;31051;51.540;5.852;2023-09-19T03:52:13;13.4;76.5
45315;SHT31;31051;51.540;5.852;2023-09-19T04:05:12;13.5;76.8
45315;SHT31;31051;51.540;5.852;2023-09-19T04:18:11;13.4;77.3
45315;SHT31;31051;51.540;5.852;2023-09-19T04:31:11;13.4;78.3
45315;SHT31;31051;51.540;5.852;2023-09-19T04:44:10;13.5;78.9
45315;SHT31;31051;51.540;5.852;2023-09-19T04:57:09;13.4;80.0
45315;SHT31;31051;51.540;5.852;2023-09-19T05:10:09;13.5;80.0
45315;SHT31;31051;51.540;5.852;2023-09-19T05:23:08;13.6;79.8
45315;SHT31;31051;51.540;5.852;2023-09-19T05:36:07;13.8;79.1
45315;SHT31;31051;51.540;5.852;2023-09-19T05:49:07;13.8;79.1
45315;SHT31;31051;51.540;5.852;2023-09-19T06:02:06;13.9;79.0
45315;SHT31;31051;51.540;5.852;2023-09-19T06:28:05;14.1;79.7
45315;SHT31;31051;51.540;5.852;2023-09-19T06:41:04;14.2;80.2
45315;SHT31;31051;51.540;5.852;2023-09-19T06:54:03;14.4;79.9
45315;SHT31;31051;51.540;5.852;2023-09-19T07:07:03;14.4;80.9
45315;SHT31;31051;51.540;5.852;2023-09-19T07:20:02;14.5;80.6
45315;SHT31;31051;51.540;5.852;2023-09-19T07:33:01;14.6;80.3
45315;SHT31;31051;51.540;5.852;2023-09-19T07:46:01;14.8;80.0
45315;SHT31;31051;51.540;5.852;2023-09-19T07:59:00;15.2;78.4
45315;SHT31;31051;51.540;5.852;2023-09-19T08:11:59;15.5;78.9
45315;SHT31;31051;51.540;5.852;2023-09-19T08:24:48;15.7;77.8
45315;SHT31;31051;51.540;5.852;2023-09-19T08:37:47;15.9;76.1
45315;SHT31;31051;51.540;5.852;2023-09-19T08:50:47;16.4;74.8
45315;SHT31;31051;51.540;5.852;2023-09-19T09:03:46;16.7;75.4
45315;SHT31;31051;51.540;5.852;2023-09-19T09:16:44;16.4;74.5
45315;SHT31;31051;51.540;5.852;2023-09-19T09:29:33;17.0;72.6
45315;SHT31;31051;51.540;5.852;2023-09-19T09:42:21;17.3;72.3
45315;SHT31;31051;51.540;5.852;2023-09-19T09:55:09;17.5;68.9
45315;SHT31;31051;51.540;5.852;2023-09-19T10:07:59;17.8;67.2
45315;SHT31;31051;51.540;5.852;2023-09-19T10:20:57;17.8;68.1
45315;SHT31;31051;51.540;5.852;2023-09-19T10:33:46;18.2;67.9
45315;SHT31;31051;51.540;5.852;2023-09-19T10:46:46;18.1;67.4
45315;SHT31;31051;51.540;5.852;2023-09-19T10:59:45;18.3;66.1
45315;SHT31;31051;51.540;5.852;2023-09-19T11:12:45;18.3;64.3
45315;SHT31;31051;51.540;5.852;2023-09-19T11:25:44;18.8;63.6
45315;SHT31;31051;51.540;5.852;2023-09-19T11:38:43;19.0;61.7
45315;SHT31;31051;51.540;5.852;2023-09-19T11:51:43;19.3;62.0
45315;SHT31;31051;51.540;5.852;2023-09-19T12:04:42;19.7;61.0
45315;SHT31;31051;51.540;5.852;2023-09-19T12:17:41;19.1;60.7
45315;SHT31;31051;51.540;5.852;2023-09-19T12:30:29;19.7;58.8
45315;SHT31;31051;51.540;5.852;2023-09-19T12:43:18;19.6;61.3
45315;SHT31;31051;51.540;5.852;2023-09-19T12:56:18;19.4;59.8
45315;SHT31;31051;51.540;5.852;2023-09-19T13:09:17;19.3;62.5
45315;SHT31;31051;51.540;5.852;2023-09-19T13:22:16;19.7;62.1
45315;SHT31;31051;51.540;5.852;2023-09-19T13:35:05;19.5;61.7
45315;SHT31;31051;51.540;5.852;2023-09-19T13:48:04;19.2;63.3
45315;SHT31;31051;51.540;5.852;2023-09-19T14:01:04;19.2;62.5
45315;SHT31;31051;51.540;5.852;2023-09-19T14:14:03;19.1;63.1
45315;SHT31;31051;51.540;5.852;2023-09-19T14:27:02;18.9;64.3
45315;SHT31;31051;51.540;5.852;2023-09-19T14:39:50;19.1;63.8
45315;SHT31;31051;51.540;5.852;2023-09-19T14:52:39;19.4;64.6
45315;SHT31;31051;51.540;5.852;2023-09-19T15:05:38;19.2;65.1
45315;SHT31;31051;51.540;5.852;2023-09-19T15:18:27;19.1;66.2
45315;SHT31;31051;51.540;5.852;2023-09-19T15:31:25;18.9;65.5
45315;SHT31;31051;51.540;5.852;2023-09-19T15:44:15;18.9;66.3
45315;SHT31;31051;51.540;5.852;2023-09-19T15:57:14;19.0;65.9
45315;SHT31;31051;51.540;5.852;2023-09-19T16:10:14;19.0;65.7
45315;SHT31;31051;51.540;5.852;2023-09-19T16:23:12;18.9;66.4
45315;SHT31;31051;51.540;5.852;2023-09-19T16:36:01;18.8;66.2
45315;SHT31;31051;51.540;5.852;2023-09-19T16:49:00;18.6;67.2
45315;SHT31;31051;51.540;5.852;2023-09-19T17:01:48;18.6;67.3
45315;SHT31;31051;51.540;5.852;2023-09-19T17:14:37;18.6;66.8
45315;SHT31;31051;51.540;5.852;2023-09-19T17:27:37;18.5;66.9
45315;SHT31;31051;51.540;5.852;2023-09-19T17:40:36;18.3;68.0
45315;SHT31;31051;51.540;5.852;2023-09-19T17:53:35;18.3;68.1
45315;SHT31;31051;51.540;5.852;2023-09-19T18:06:34;18.3;68.0
45315;SHT31;31051;51.540;5.852;2023-09-19T18:19:23;18.3;68.5
45315;SHT31;31051;51.540;5.852;2023-09-19T18:32:23;18.2;69.0
45315;SHT31;31051;51.540;5.852;2023-09-19T18:45:21;18.0;69.8
45315;SHT31;31051;51.540;5.852;2023-09-19T18:58:09;18.0;69.3
45315;SHT31;31051;51.540;5.852;2023-09-19T19:10:59;18.0;69.5
45315;SHT31;31051;51.540;5.852;2023-09-19T19:23:57;18.0;69.6
45315;SHT31;31051;51.540;5.852;2023-09-19T19:36:45;18.0;69.3
45315;SHT31;31051;51.540;5.852;2023-09-19T19:49:34;17.9;69.7
45315;SHT31;31051;51.540;5.852;2023-09-19T20:02:22;17.9;69.8
45315;SHT31;31051;51.540;5.852;2023-09-19T20:15:11;17.8;69.9
45315;SHT31;31051;51.540;5.852;2023-09-19T20:28:11;17.9;69.8
45315;SHT31;31051;51.540;5.852;2023-09-19T20:41:10;17.9;69.0
45315;SHT31;31051;51.540;5.852;2023-09-19T20:54:09;17.9;69.1
45315;SHT31;31051;51.540;5.852;2023-09-19T21:07:08;18.0;69.4
45315;SHT31;31051;51.540;5.852;2023-09-19T21:19:57;18.0;69.0
45315;SHT31;31051;51.540;5.852;2023-09-19T21:32:56;17.9;69.6
45315;SHT31;31051;51.540;5.852;2023-09-19T21:45:45;18.0;69.2
45315;SHT31;31051;51.540;5.852;2023-09-19T21:58:44;17.9;69.8
45315;SHT31;31051;51.540;5.852;2023-09-19T22:11:44;17.9;70.3
45315;SHT31;31051;51.540;5.852;2023-09-19T22:24:43;17.9;70.3
45315;SHT31;31051;51.540;5.852;2023-09-19T22:37:43;17.8;70.5
45315;SHT31;31051;51.540;5.852;2023-09-19T22:50:42;17.5;72.0
45315;SHT31;31051;51.540;5.852;2023-09-19T23:03:41;17.3;72.9
45315;SHT31;31051;51.540;5.852;2023-09-19T23:16:41;17.2;73.1
45315;SHT31;31051;51.540;5.852;2023-09-19T23:42:29;17.0;74.0
45315;SHT31;31051;51.540;5.852;2023-09-19T23:55:28;17.1;73.9
